This is the latest recevied weather packets stored in our database for station/object WA2FTC. If no packets are shown the sender has not sent any weather packets the latest 10 day(s).
| Time | Temp. | Humidity | Pressure | Rain* | Wind** | Luminosity | Snow |
|---|---|---|---|---|---|---|---|
| 1777928423 | 31.11° C | 50% | 1013.9 hPa | 0 mm | - | - | - |
| 1777927535 | 32.22° C | 46% | 1013.7 hPa | 0 mm | - | - | - |
| 1777926679 | 35° C | 44% | 1013.7 hPa | 0 mm | - | - | - |
| 1777925717 | 35.56° C | 41% | 1013.9 hPa | 0 mm | - | - | - |
| 1777924816 | 33.89° C | 46% | 1014.3 hPa | 0 mm | - | - | - |
| 1777923914 | 38.33° C | 40% | 1014.3 hPa | 0 mm | - | - | - |
| 1777923044 | 35.56° C | 41% | 1014.3 hPa | 0 mm | - | - | - |
| 1777922144 | 38.33° C | 41% | 1014.7 hPa | 0 mm | - | - | - |
| 1777921240 | 38.33° C | 39% | 1015 hPa | 0 mm | - | - | - |
| 1777920336 | 33.89° C | 49% | 1015.1 hPa | 0 mm | - | - | - |
| 1777919436 | 31.11° C | 50% | 1015.3 hPa | 0 mm | - | - | - |
| 1777918543 | 33.89° C | 46% | 1015.5 hPa | 0 mm | - | - | - |
| 1777917632 | 37.78° C | 41% | 1015.4 hPa | 0 mm | - | - | - |
| 1777916729 | 35.56° C | 44% | 1015.5 hPa | 0 mm | - | - | - |
| 1777915828 | 32.78° C | 47% | 1015.5 hPa | 0 mm | - | - | - |
| 1777914927 | 30.56° C | 50% | 1015.7 hPa | 0 mm | - | - | - |
| 1777914026 | 33.33° C | 46% | 1015.7 hPa | 0 mm | - | - | - |
| 1777913146 | 32.78° C | 46% | 1015.9 hPa | 0 mm | - | - | - |
| 1777912225 | 33.33° C | 45% | 1016 hPa | 0 mm | - | - | - |
| 1777911336 | 33.89° C | 44% | 1016.2 hPa | 0 mm | - | - | - |
| 1777910422 | 33.89° C | 42% | 1016.2 hPa | 0 mm | - | - | - |
| 1777909516 | 33.33° C | 47% | 1016.2 hPa | 0 mm | - | - | - |
| 1777908612 | 32.22° C | 47% | 1016.4 hPa | 0 mm | - | - | - |
| 1777907732 | 30° C | 53% | 1016.5 hPa | 0 mm | - | - | - |
| 1777906825 | 31.11° C | 50% | 1016.6 hPa | 0 mm | - | - | - |
* Rain latest hour (hover to see other rain measurements)
** Current wind speed in m/s (hover to see current wind gust speed)